• Join FlightAware (Why Join?)
  • Login
  • US Flag 
12:10PM EDT


 

Airport Tracker/Info


-or-


 

Live Flight TrackerFlight Track Log ✈ THY2256 ✈ 29-Aug-2013 ✈ LTBA / IST - LTAK

Flight Track Log - Related Links

Times and Time Zones

All times are in EDT time to prevent confusion due to time zone crossing. See the THY2256 flight status page for this flight to view local times or setup timezone preferences in your user account.

Time Position Orientation Groundspeed Altitude Reporting Facility
EDT Latitude Longitude Course Direction KTS MPH feet Rate Location/Type
05:24PM 40.6737 29.3839 125° Southeast  Level Estimated
05:25PM 40.6128 29.4959 126° Southeast  Level Estimated
05:26PM 40.5517 29.6076 126° Southeast  Level Estimated
05:27PM 40.4905 29.7192 126° Southeast  Level Estimated
05:28PM 40.4292 29.8305 126° Southeast  Level Estimated
05:29PM 40.3678 29.9417 126° Southeast  Level Estimated
05:30PM 40.3063 30.0526 126° Southeast  Level Estimated
05:31PM 40.2447 30.1633 126° Southeast  Level Estimated
05:32PM 40.1830 30.2738 126° Southeast  Level Estimated
05:33PM 40.1212 30.3842 126° Southeast  Level Estimated
05:34PM 40.0593 30.4943 126° Southeast  Level Estimated
05:35PM 39.9973 30.6042 126° Southeast  Level Estimated
05:36PM 39.9352 30.7140 126° Southeast  Level Estimated
05:37PM 39.8729 30.8235 126° Southeast  Level Estimated
05:38PM 39.8106 30.9328 127° Southeast  Level Estimated
05:39PM 39.7482 31.0420 127° Southeast  Level Estimated
05:40PM 39.6856 31.1509 127° Southeast  Level Estimated
05:41PM 39.6230 31.2596 127° Southeast  Level Estimated
05:42PM 39.5602 31.3682 127° Southeast  Level Estimated
05:43PM 39.4974 31.4765 127° Southeast  Level Estimated
05:44PM 39.4345 31.5847 127° Southeast  Level Estimated
05:45PM 39.3714 31.6926 127° Southeast  Level Estimated
05:46PM 39.3083 31.8004 127° Southeast  Level Estimated
05:47PM 39.2450 31.9079 127° Southeast  Level Estimated
05:48PM 39.1817 32.0153 127° Southeast  Level Estimated
05:49PM 39.1183 32.1225 127° Southeast  Level Estimated
05:50PM 39.0547 32.2295 127° Southeast  Level Estimated
05:51PM 38.9911 32.3362 127° Southeast  Level Estimated
05:52PM 38.9274 32.4428 128° Southeast  Level Estimated
05:53PM 38.8635 32.5493 128° Southeast  Level Estimated
05:54PM 38.7996 32.6555 128° Southeast  Level Estimated
05:55PM 38.7356 32.7615 128° Southeast  Level Estimated
05:56PM 38.6715 32.8673 128° Southeast  Level Estimated
05:57PM 38.6073 32.9730 128° Southeast  Level Estimated
05:58PM 38.5430 33.0784 128° Southeast  Level Estimated
05:59PM 38.4786 33.1837 128° Southeast  Level Estimated
06:00PM 38.4141 33.2888 128° Southeast  Level Estimated
06:01PM 38.3495 33.3937 128° Southeast  Level Estimated
06:02PM 38.2848 33.4984 128° Southeast  Level Estimated
06:03PM 38.2201 33.6029 128° Southeast  Level Estimated
06:04PM 38.1552 33.7072 128° Southeast  Level Estimated
06:05PM 38.0902 33.8114 128° Southeast  Level Estimated
06:06PM 38.0252 33.9153 128° Southeast  Level Estimated
06:07PM 37.9600 34.0191 129° Southeast  Level Estimated
06:08PM 37.8948 34.1227 129° Southeast  Level Estimated
06:09PM 37.8295 34.2261 129° Southeast  Level Estimated
06:10PM 37.7641 34.3293 129° Southeast  Level Estimated
06:11PM 37.6986 34.4324 129° Southeast  Level Estimated
06:12PM 37.6330 34.5352 129° Southeast  Level Estimated
06:13PM 37.5673 34.6379 129° Southeast  Level Estimated
06:14PM 37.5015 34.7404 129° Southeast  Level Estimated
06:15PM 37.4357 34.8427 129° Southeast  Level Estimated
06:16PM 37.3697 34.9449 129° Southeast  Level Estimated
06:17PM 37.3037 35.0468 129° Southeast  Level Estimated
06:18PM 37.2376 35.1486 129° Southeast  Level Estimated
06:19PM 37.1714 35.2502 129° Southeast  Level Estimated
06:20PM 37.1051 35.3516 129° Southeast  Level Estimated
06:21PM 37.0387 35.4529 129° Southeast  Level Estimated
06:22PM 36.9722 35.5540 129° Southeast  Level Estimated
06:23PM 36.9057 35.6549 130° Southeast  Level Estimated
06:24PM 36.8391 35.7556 130° Southeast  Level Estimated
06:25PM 36.7723 35.8561 130° Southeast  Level Estimated
06:26PM 36.7055 35.9565 130° Southeast  Level Estimated
06:27PM 36.6386 36.0567 130° Southeast  Level Estimated
06:28PM 36.5735 36.1540 130° Southeast  Level Estimated
06:29PM 36.5735 36.1540 North  Level Estimated
06:30PM 36.5735 36.1540 North  Level Estimated
06:31PM 36.5735 36.1540 North  Level Estimated
06:32PM 36.5735 36.1540 North  Level Estimated
06:33PM 36.5735 36.1540 North  Level Estimated
06:34PM 36.5735 36.1540 North  Level Estimated
06:35PM 36.5735 36.1540 North  Level Estimated
06:36PM 36.5735 36.1540 North  Level Estimated
06:37PM 36.5735 36.1540 North  Level Estimated
06:38PM 36.5735 36.1540 North  Level Estimated
06:39PM 36.5735 36.1540 North  Level Estimated
06:40PM 36.5735 36.1540 North  Level Estimated
06:41PM 36.5735 36.1540 North  Level Estimated
06:42PM 36.5735 36.1540 North  Level Estimated
06:43PM 36.5735 36.1540 North  Level Estimated
06:44PM 36.5735 36.1540 North  Level Estimated